Beaver, WA

7:57 AM PDT on October 01, 2014 (GMT -0700)
RAWS ELLIS MT WA US | Change Station
CLOSE
Current Station
Personal Weather Station
Location: Clallam Bay, WA
Elevation: 2305 ft
Nearby Weather Stations

Elev 2305 ft 48.13 °N, 124.31 °W | Updated 57 minutes ago

Fog
Fog
47 °F
Feels Like 44 °F
N
7
Wind Variable Wind from SSW
Gusts 13.0 mph

Today
High -- | Low -- °F
--% Chance of Precip.
Yesterday
High -- | Low -- °F
Precip. -- in
7:16 AM 6:56 PM
Waxing Crescent, 48% visible
Pressure 30.08 in
Visibility 2.0 miles
Clouds Few 1700 ft
Overcast 2200 ft
Windchill 44 °F
Dew Point 47 °F
Humidity 99%
Rainfall -999.00 in
Snow Depth 0 in , 2 in , 0 in
UV 0 out of 12
Pollen 1.30 out of 12
Air Quality Not available.
Flu Activity Not available.
METAR KUIL 301501Z AUTO 00000KT 2SM BR FEW017 OVC022 10/10 A3008 RMK AO2 T01000100

More Conditions Fewer Conditions

Pressure 30.08 in
Visibility 2.0 miles
Clouds Few 1700 ft
Overcast 2200 ft
Windchill 44 °F
Dew Point 47 °F
Humidity 99%
Rainfall -999.00 in
Snow Depth 0 in , 2 in , 0 in
UV 0 out of 12
Pollen 1.30 out of 12
Air Quality Not available.
Flu Activity Not available.
METAR KUIL 301501Z AUTO 00000KT 2SM BR FEW017 OVC022 10/10 A3008 RMK AO2 T01000100

More Conditions Fewer Conditions

10-Day Weather Forecast

Almanac

Astronomy

Oct. 01, 2014 Rise Set
Actual Time 7:16 AM PDT 6:56 PM PDT
Civil Twilight 6:45 AM PDT 7:27 PM PDT
Nautical Twilight 6:09 AM PDT 8:03 PM PDT
Astronomical Twilight 5:32 AM PDT 8:39 PM PDT
Moon 2:41 PM PDT No Moon Set
Length of Visible Light 12h 41m
Length of Day
11h 39m
Tomorrow will be 3m 28s shorter.
Waxing Crescent, 48% of the Moon is Illuminated
Today
Waxing Crescent
Oct 1
First Quarter
Oct 8
Full
Oct 15
Last Quarter
Oct 23
New

Today's Extremes

State Highs State Lows

Community

WunderPhotos

Upload Photos

1,757,960 photos uploaded!

Nearby

Snow Depth

Station Depth Elevation
Harts Pass 0 in 6500 ft
Olallie Meadows 2 in 3700 ft
Green Lake 0 in 6000 ft
Elbow Lake 0 in 3200 ft
Meadows Pass 0 in 3500 ft

Earthquake Activity

City Distance Mag. Time & Date
No recent earthquake activity has been reported nearby.
Minimum magnitude displayed is 2.5.

Coastal Water Temperatures

Place Temperature
La Push, WA 57.9 °F
Port Angeles, WA 51.1 °F
Friday Harbor, WA 51.1 °F
Westport, WA 60.1 °F

Nearby Weather Stations